sensor_id;sensor_type;location;lat;lon;timestamp;P1;durP1;ratioP1;P2;durP2;ratioP2
5995;SDS011;3026;53.612;7.278;2023-06-10T00:00:39;7.00;;;5.03;;
5995;SDS011;3026;53.612;7.278;2023-06-10T00:03:07;7.93;;;5.10;;
5995;SDS011;3026;53.612;7.278;2023-06-10T00:05:35;5.30;;;3.80;;
5995;SDS011;3026;53.612;7.278;2023-06-10T00:08:04;8.13;;;4.37;;
5995;SDS011;3026;53.612;7.278;2023-06-10T00:10:33;6.53;;;4.77;;
5995;SDS011;3026;53.612;7.278;2023-06-10T00:13:00;8.70;;;5.03;;
5995;SDS011;3026;53.612;7.278;2023-06-10T00:15:27;8.73;;;4.67;;
5995;SDS011;3026;53.612;7.278;2023-06-10T00:17:54;7.13;;;4.90;;
5995;SDS011;3026;53.612;7.278;2023-06-10T00:20:21;7.13;;;4.93;;
5995;SDS011;3026;53.612;7.278;2023-06-10T00:22:50;6.73;;;4.50;;
5995;SDS011;3026;53.612;7.278;2023-06-10T00:25:17;8.80;;;4.90;;
5995;SDS011;3026;53.612;7.278;2023-06-10T00:27:44;9.27;;;5.17;;
5995;SDS011;3026;53.612;7.278;2023-06-10T00:30:11;8.37;;;4.97;;
5995;SDS011;3026;53.612;7.278;2023-06-10T00:32:39;6.30;;;4.90;;
5995;SDS011;3026;53.612;7.278;2023-06-10T00:35:06;7.50;;;4.27;;
5995;SDS011;3026;53.612;7.278;2023-06-10T00:37:33;7.97;;;5.20;;
5995;SDS011;3026;53.612;7.278;2023-06-10T00:40:03;7.57;;;4.67;;
5995;SDS011;3026;53.612;7.278;2023-06-10T00:42:30;8.40;;;4.63;;
5995;SDS011;3026;53.612;7.278;2023-06-10T00:44:57;8.00;;;5.33;;
5995;SDS011;3026;53.612;7.278;2023-06-10T00:47:24;7.30;;;4.53;;
5995;SDS011;3026;53.612;7.278;2023-06-10T00:49:52;7.30;;;4.87;;
5995;SDS011;3026;53.612;7.278;2023-06-10T00:52:20;9.03;;;5.07;;
5995;SDS011;3026;53.612;7.278;2023-06-10T00:54:50;8.00;;;5.17;;
5995;SDS011;3026;53.612;7.278;2023-06-10T00:57:19;9.33;;;4.73;;
5995;SDS011;3026;53.612;7.278;2023-06-10T00:59:47;8.93;;;5.40;;
5995;SDS011;3026;53.612;7.278;2023-06-10T01:02:15;6.60;;;4.50;;
5995;SDS011;3026;53.612;7.278;2023-06-10T01:04:42;9.73;;;4.73;;
5995;SDS011;3026;53.612;7.278;2023-06-10T01:07:10;9.37;;;4.77;;
5995;SDS011;3026;53.612;7.278;2023-06-10T01:09:45;6.53;;;4.00;;
5995;SDS011;3026;53.612;7.278;2023-06-10T01:12:26;7.07;;;4.30;;
5995;SDS011;3026;53.612;7.278;2023-06-10T01:14:59;8.27;;;4.87;;
5995;SDS011;3026;53.612;7.278;2023-06-10T01:17:27;8.17;;;4.30;;
5995;SDS011;3026;53.612;7.278;2023-06-10T01:19:55;7.37;;;4.73;;
5995;SDS011;3026;53.612;7.278;2023-06-10T01:22:25;7.83;;;5.27;;
5995;SDS011;3026;53.612;7.278;2023-06-10T01:24:53;7.77;;;4.80;;
5995;SDS011;3026;53.612;7.278;2023-06-10T01:27:23;7.87;;;4.33;;
5995;SDS011;3026;53.612;7.278;2023-06-10T01:29:54;12.63;;;5.57;;
5995;SDS011;3026;53.612;7.278;2023-06-10T01:32:29;10.63;;;5.13;;
5995;SDS011;3026;53.612;7.278;2023-06-10T01:35:01;8.00;;;4.87;;
5995;SDS011;3026;53.612;7.278;2023-06-10T01:37:30;9.50;;;3.87;;
5995;SDS011;3026;53.612;7.278;2023-06-10T01:39:59;7.97;;;4.70;;
5995;SDS011;3026;53.612;7.278;2023-06-10T01:42:30;8.00;;;4.40;;
5995;SDS011;3026;53.612;7.278;2023-06-10T01:44:58;7.27;;;4.87;;
5995;SDS011;3026;53.612;7.278;2023-06-10T01:47:25;8.03;;;4.50;;
5995;SDS011;3026;53.612;7.278;2023-06-10T01:49:51;6.73;;;4.43;;
5995;SDS011;3026;53.612;7.278;2023-06-10T01:52:18;9.77;;;5.00;;
5995;SDS011;3026;53.612;7.278;2023-06-10T01:54:46;10.67;;;5.07;;
5995;SDS011;3026;53.612;7.278;2023-06-10T01:57:13;7.50;;;4.70;;
5995;SDS011;3026;53.612;7.278;2023-06-10T01:59:40;8.80;;;4.70;;
5995;SDS011;3026;53.612;7.278;2023-06-10T02:02:09;6.73;;;4.10;;
5995;SDS011;3026;53.612;7.278;2023-06-10T02:04:36;8.17;;;4.93;;
5995;SDS011;3026;53.612;7.278;2023-06-10T02:07:03;7.37;;;3.90;;
5995;SDS011;3026;53.612;7.278;2023-06-10T02:09:30;8.20;;;5.00;;
5995;SDS011;3026;53.612;7.278;2023-06-10T02:12:01;9.70;;;4.67;;
5995;SDS011;3026;53.612;7.278;2023-06-10T02:14:28;9.37;;;4.87;;
5995;SDS011;3026;53.612;7.278;2023-06-10T02:16:55;8.37;;;4.63;;
5995;SDS011;3026;53.612;7.278;2023-06-10T02:19:22;7.73;;;4.67;;
5995;SDS011;3026;53.612;7.278;2023-06-10T02:21:50;12.50;;;4.43;;
5995;SDS011;3026;53.612;7.278;2023-06-10T02:24:17;8.27;;;4.30;;
5995;SDS011;3026;53.612;7.278;2023-06-10T02:26:44;8.47;;;4.23;;
5995;SDS011;3026;53.612;7.278;2023-06-10T02:29:14;9.97;;;4.80;;
5995;SDS011;3026;53.612;7.278;2023-06-10T02:31:41;10.27;;;4.90;;
5995;SDS011;3026;53.612;7.278;2023-06-10T02:34:07;8.20;;;4.70;;
5995;SDS011;3026;53.612;7.278;2023-06-10T02:36:34;7.90;;;4.57;;
5995;SDS011;3026;53.612;7.278;2023-06-10T02:39:02;8.47;;;5.10;;
5995;SDS011;3026;53.612;7.278;2023-06-10T02:41:29;6.57;;;4.13;;
5995;SDS011;3026;53.612;7.278;2023-06-10T02:43:56;10.23;;;4.53;;
5995;SDS011;3026;53.612;7.278;2023-06-10T02:46:24;7.87;;;4.60;;
5995;SDS011;3026;53.612;7.278;2023-06-10T02:48:51;9.07;;;4.53;;
5995;SDS011;3026;53.612;7.278;2023-06-10T02:51:18;7.97;;;4.43;;
5995;SDS011;3026;53.612;7.278;2023-06-10T02:53:45;7.13;;;4.20;;
5995;SDS011;3026;53.612;7.278;2023-06-10T02:56:13;6.77;;;3.80;;
5995;SDS011;3026;53.612;7.278;2023-06-10T02:58:42;7.00;;;4.30;;
5995;SDS011;3026;53.612;7.278;2023-06-10T03:01:09;8.53;;;4.47;;
5995;SDS011;3026;53.612;7.278;2023-06-10T03:03:37;5.70;;;4.27;;
5995;SDS011;3026;53.612;7.278;2023-06-10T03:06:07;11.03;;;4.53;;
5995;SDS011;3026;53.612;7.278;2023-06-10T03:08:35;8.30;;;4.80;;
5995;SDS011;3026;53.612;7.278;2023-06-10T03:11:02;8.33;;;4.73;;
5995;SDS011;3026;53.612;7.278;2023-06-10T03:13:29;8.57;;;4.30;;
5995;SDS011;3026;53.612;7.278;2023-06-10T03:15:56;10.30;;;4.63;;
5995;SDS011;3026;53.612;7.278;2023-06-10T03:18:25;8.77;;;5.40;;
5995;SDS011;3026;53.612;7.278;2023-06-10T03:20:54;10.13;;;5.03;;
5995;SDS011;3026;53.612;7.278;2023-06-10T03:23:21;10.70;;;5.73;;
5995;SDS011;3026;53.612;7.278;2023-06-10T03:25:48;12.00;;;5.20;;
5995;SDS011;3026;53.612;7.278;2023-06-10T03:28:15;13.67;;;6.00;;
5995;SDS011;3026;53.612;7.278;2023-06-10T03:30:42;10.73;;;5.50;;
5995;SDS011;3026;53.612;7.278;2023-06-10T03:33:08;10.70;;;5.63;;
5995;SDS011;3026;53.612;7.278;2023-06-10T03:35:35;13.70;;;6.03;;
5995;SDS011;3026;53.612;7.278;2023-06-10T03:38:03;10.83;;;6.17;;
5995;SDS011;3026;53.612;7.278;2023-06-10T03:40:30;10.83;;;5.97;;
5995;SDS011;3026;53.612;7.278;2023-06-10T03:42:57;11.17;;;5.73;;
5995;SDS011;3026;53.612;7.278;2023-06-10T03:45:24;15.17;;;6.77;;
5995;SDS011;3026;53.612;7.278;2023-06-10T03:47:53;16.87;;;6.17;;
5995;SDS011;3026;53.612;7.278;2023-06-10T03:50:20;12.00;;;6.30;;
5995;SDS011;3026;53.612;7.278;2023-06-10T03:52:48;10.77;;;6.13;;
5995;SDS011;3026;53.612;7.278;2023-06-10T03:55:16;11.57;;;6.53;;
5995;SDS011;3026;53.612;7.278;2023-06-10T03:57:46;9.07;;;5.87;;
5995;SDS011;3026;53.612;7.278;2023-06-10T04:00:14;15.07;;;6.00;;
5995;SDS011;3026;53.612;7.278;2023-06-10T04:02:42;12.03;;;5.90;;
5995;SDS011;3026;53.612;7.278;2023-06-10T04:05:13;11.17;;;6.27;;
5995;SDS011;3026;53.612;7.278;2023-06-10T04:07:41;10.77;;;5.93;;
5995;SDS011;3026;53.612;7.278;2023-06-10T04:10:09;13.13;;;6.23;;
5995;SDS011;3026;53.612;7.278;2023-06-10T04:12:38;9.70;;;5.80;;
5995;SDS011;3026;53.612;7.278;2023-06-10T04:15:05;11.87;;;5.93;;
5995;SDS011;3026;53.612;7.278;2023-06-10T04:17:33;9.43;;;5.63;;
5995;SDS011;3026;53.612;7.278;2023-06-10T04:20:00;14.43;;;6.73;;
5995;SDS011;3026;53.612;7.278;2023-06-10T04:22:28;15.03;;;6.37;;
5995;SDS011;3026;53.612;7.278;2023-06-10T04:24:56;10.53;;;5.80;;
5995;SDS011;3026;53.612;7.278;2023-06-10T04:27:22;11.93;;;5.70;;
5995;SDS011;3026;53.612;7.278;2023-06-10T04:29:51;10.13;;;6.43;;
5995;SDS011;3026;53.612;7.278;2023-06-10T04:32:18;14.27;;;5.83;;
5995;SDS011;3026;53.612;7.278;2023-06-10T04:34:45;9.40;;;5.30;;
5995;SDS011;3026;53.612;7.278;2023-06-10T04:37:12;9.73;;;5.30;;
5995;SDS011;3026;53.612;7.278;2023-06-10T04:39:39;10.10;;;5.50;;
5995;SDS011;3026;53.612;7.278;2023-06-10T04:42:07;14.67;;;5.50;;
5995;SDS011;3026;53.612;7.278;2023-06-10T04:44:33;7.27;;;4.80;;
5995;SDS011;3026;53.612;7.278;2023-06-10T04:47:02;10.03;;;5.83;;
5995;SDS011;3026;53.612;7.278;2023-06-10T04:49:28;10.87;;;5.50;;
5995;SDS011;3026;53.612;7.278;2023-06-10T04:51:56;13.40;;;5.67;;
5995;SDS011;3026;53.612;7.278;2023-06-10T04:54:25;10.57;;;5.33;;
5995;SDS011;3026;53.612;7.278;2023-06-10T04:56:51;10.00;;;5.07;;
5995;SDS011;3026;53.612;7.278;2023-06-10T04:59:19;11.83;;;5.10;;
5995;SDS011;3026;53.612;7.278;2023-06-10T05:01:46;11.83;;;5.13;;
5995;SDS011;3026;53.612;7.278;2023-06-10T05:04:14;11.90;;;5.07;;
5995;SDS011;3026;53.612;7.278;2023-06-10T05:06:41;10.63;;;4.50;;
5995;SDS011;3026;53.612;7.278;2023-06-10T05:09:09;12.43;;;4.73;;
5995;SDS011;3026;53.612;7.278;2023-06-10T05:11:36;8.80;;;5.17;;
5995;SDS011;3026;53.612;7.278;2023-06-10T05:14:03;10.43;;;4.97;;
5995;SDS011;3026;53.612;7.278;2023-06-10T05:16:30;11.60;;;4.90;;
5995;SDS011;3026;53.612;7.278;2023-06-10T05:18:57;10.07;;;4.47;;
5995;SDS011;3026;53.612;7.278;2023-06-10T05:21:25;10.27;;;5.10;;
5995;SDS011;3026;53.612;7.278;2023-06-10T05:23:52;12.10;;;4.93;;
5995;SDS011;3026;53.612;7.278;2023-06-10T05:26:18;16.97;;;4.53;;
5995;SDS011;3026;53.612;7.278;2023-06-10T05:28:45;12.97;;;5.13;;
5995;SDS011;3026;53.612;7.278;2023-06-10T05:31:12;12.40;;;4.83;;
5995;SDS011;3026;53.612;7.278;2023-06-10T05:33:39;10.27;;;4.50;;
5995;SDS011;3026;53.612;7.278;2023-06-10T05:36:06;11.20;;;5.03;;
5995;SDS011;3026;53.612;7.278;2023-06-10T05:38:34;8.67;;;4.63;;
5995;SDS011;3026;53.612;7.278;2023-06-10T05:41:01;7.43;;;4.20;;
5995;SDS011;3026;53.612;7.278;2023-06-10T05:43:28;10.23;;;5.10;;
5995;SDS011;3026;53.612;7.278;2023-06-10T05:45:55;11.10;;;5.10;;
5995;SDS011;3026;53.612;7.278;2023-06-10T05:48:22;10.70;;;5.03;;
5995;SDS011;3026;53.612;7.278;2023-06-10T05:50:48;9.30;;;4.63;;
5995;SDS011;3026;53.612;7.278;2023-06-10T05:53:15;12.57;;;5.03;;
5995;SDS011;3026;53.612;7.278;2023-06-10T05:55:44;8.93;;;4.97;;
5995;SDS011;3026;53.612;7.278;2023-06-10T05:58:11;10.57;;;5.00;;
5995;SDS011;3026;53.612;7.278;2023-06-10T06:00:39;11.67;;;4.93;;
5995;SDS011;3026;53.612;7.278;2023-06-10T06:03:06;8.37;;;4.77;;
5995;SDS011;3026;53.612;7.278;2023-06-10T06:05:33;10.77;;;4.33;;
5995;SDS011;3026;53.612;7.278;2023-06-10T06:08:00;7.10;;;4.47;;
5995;SDS011;3026;53.612;7.278;2023-06-10T06:10:27;7.80;;;4.63;;
5995;SDS011;3026;53.612;7.278;2023-06-10T06:12:56;6.03;;;4.87;;
5995;SDS011;3026;53.612;7.278;2023-06-10T06:15:23;9.97;;;5.17;;
5995;SDS011;3026;53.612;7.278;2023-06-10T06:17:49;12.23;;;5.43;;
5995;SDS011;3026;53.612;7.278;2023-06-10T06:20:17;12.83;;;5.40;;
5995;SDS011;3026;53.612;7.278;2023-06-10T06:22:44;12.07;;;6.17;;
5995;SDS011;3026;53.612;7.278;2023-06-10T06:25:11;6.97;;;4.97;;
5995;SDS011;3026;53.612;7.278;2023-06-10T06:27:37;10.90;;;5.40;;
5995;SDS011;3026;53.612;7.278;2023-06-10T06:30:07;10.80;;;5.30;;
5995;SDS011;3026;53.612;7.278;2023-06-10T06:32:34;9.53;;;4.93;;
5995;SDS011;3026;53.612;7.278;2023-06-10T06:35:01;10.53;;;5.73;;
5995;SDS011;3026;53.612;7.278;2023-06-10T06:37:29;9.97;;;5.40;;
5995;SDS011;3026;53.612;7.278;2023-06-10T06:39:57;12.43;;;5.77;;
5995;SDS011;3026;53.612;7.278;2023-06-10T06:42:24;10.30;;;5.10;;
5995;SDS011;3026;53.612;7.278;2023-06-10T06:44:51;13.17;;;5.47;;
5995;SDS011;3026;53.612;7.278;2023-06-10T06:47:19;10.83;;;5.47;;
5995;SDS011;3026;53.612;7.278;2023-06-10T06:49:46;9.23;;;5.40;;
5995;SDS011;3026;53.612;7.278;2023-06-10T06:52:13;10.30;;;5.47;;
5995;SDS011;3026;53.612;7.278;2023-06-10T06:54:40;12.63;;;4.83;;
5995;SDS011;3026;53.612;7.278;2023-06-10T06:57:06;8.10;;;4.90;;
5995;SDS011;3026;53.612;7.278;2023-06-10T06:59:33;9.93;;;5.03;;
5995;SDS011;3026;53.612;7.278;2023-06-10T07:02:00;7.53;;;5.10;;
5995;SDS011;3026;53.612;7.278;2023-06-10T07:04:28;10.87;;;5.30;;
5995;SDS011;3026;53.612;7.278;2023-06-10T07:06:55;14.43;;;5.70;;
5995;SDS011;3026;53.612;7.278;2023-06-10T07:09:22;7.67;;;4.90;;
5995;SDS011;3026;53.612;7.278;2023-06-10T07:11:49;6.93;;;5.10;;
5995;SDS011;3026;53.612;7.278;2023-06-10T07:14:16;8.13;;;4.83;;
5995;SDS011;3026;53.612;7.278;2023-06-10T07:16:42;11.40;;;5.47;;
5995;SDS011;3026;53.612;7.278;2023-06-10T07:19:10;11.17;;;5.53;;
5995;SDS011;3026;53.612;7.278;2023-06-10T07:21:38;7.63;;;5.27;;
5995;SDS011;3026;53.612;7.278;2023-06-10T07:24:05;9.83;;;5.13;;
5995;SDS011;3026;53.612;7.278;2023-06-10T07:26:32;9.97;;;5.00;;
5995;SDS011;3026;53.612;7.278;2023-06-10T07:28:59;7.23;;;5.07;;
5995;SDS011;3026;53.612;7.278;2023-06-10T07:31:26;6.87;;;4.10;;
5995;SDS011;3026;53.612;7.278;2023-06-10T07:33:52;7.43;;;5.13;;
5995;SDS011;3026;53.612;7.278;2023-06-10T07:36:19;7.50;;;4.90;;
5995;SDS011;3026;53.612;7.278;2023-06-10T07:38:47;9.20;;;4.87;;
5995;SDS011;3026;53.612;7.278;2023-06-10T07:41:14;8.97;;;5.07;;
5995;SDS011;3026;53.612;7.278;2023-06-10T07:43:43;9.20;;;4.73;;
5995;SDS011;3026;53.612;7.278;2023-06-10T07:46:09;8.53;;;5.10;;
5995;SDS011;3026;53.612;7.278;2023-06-10T07:48:36;7.97;;;5.30;;
5995;SDS011;3026;53.612;7.278;2023-06-10T07:51:03;8.07;;;4.47;;
5995;SDS011;3026;53.612;7.278;2023-06-10T07:53:30;9.27;;;4.83;;
5995;SDS011;3026;53.612;7.278;2023-06-10T07:55:58;9.87;;;5.37;;
5995;SDS011;3026;53.612;7.278;2023-06-10T07:58:25;8.57;;;4.97;;
5995;SDS011;3026;53.612;7.278;2023-06-10T08:00:52;9.13;;;5.53;;
5995;SDS011;3026;53.612;7.278;2023-06-10T08:03:20;6.87;;;4.63;;
5995;SDS011;3026;53.612;7.278;2023-06-10T08:05:47;9.23;;;5.37;;
5995;SDS011;3026;53.612;7.278;2023-06-10T08:08:13;9.00;;;5.07;;
5995;SDS011;3026;53.612;7.278;2023-06-10T08:10:40;11.77;;;6.00;;
5995;SDS011;3026;53.612;7.278;2023-06-10T08:13:08;7.47;;;5.40;;
5995;SDS011;3026;53.612;7.278;2023-06-10T08:15:35;9.40;;;5.47;;
5995;SDS011;3026;53.612;7.278;2023-06-10T08:18:02;8.97;;;4.63;;
5995;SDS011;3026;53.612;7.278;2023-06-10T08:20:29;6.93;;;5.07;;
5995;SDS011;3026;53.612;7.278;2023-06-10T08:22:56;14.30;;;5.47;;
5995;SDS011;3026;53.612;7.278;2023-06-10T08:25:23;7.53;;;4.93;;
5995;SDS011;3026;53.612;7.278;2023-06-10T08:27:49;9.17;;;5.37;;
5995;SDS011;3026;53.612;7.278;2023-06-10T08:30:18;7.17;;;5.07;;
5995;SDS011;3026;53.612;7.278;2023-06-10T08:32:45;7.70;;;5.40;;
5995;SDS011;3026;53.612;7.278;2023-06-10T08:35:12;8.27;;;4.93;;
5995;SDS011;3026;53.612;7.278;2023-06-10T08:37:38;6.93;;;4.70;;
5995;SDS011;3026;53.612;7.278;2023-06-10T08:40:06;8.80;;;5.10;;
5995;SDS011;3026;53.612;7.278;2023-06-10T08:42:37;7.97;;;4.83;;
5995;SDS011;3026;53.612;7.278;2023-06-10T08:45:06;8.10;;;4.80;;
5995;SDS011;3026;53.612;7.278;2023-06-10T08:47:37;9.37;;;4.90;;
5995;SDS011;3026;53.612;7.278;2023-06-10T08:50:08;8.10;;;5.03;;
5995;SDS011;3026;53.612;7.278;2023-06-10T08:52:36;6.93;;;4.47;;
5995;SDS011;3026;53.612;7.278;2023-06-10T08:55:05;10.53;;;5.40;;
5995;SDS011;3026;53.612;7.278;2023-06-10T08:57:38;10.67;;;5.20;;
5995;SDS011;3026;53.612;7.278;2023-06-10T09:00:07;9.00;;;5.40;;
5995;SDS011;3026;53.612;7.278;2023-06-10T09:02:34;11.03;;;5.07;;
5995;SDS011;3026;53.612;7.278;2023-06-10T09:05:04;10.03;;;4.83;;
5995;SDS011;3026;53.612;7.278;2023-06-10T09:07:32;6.07;;;5.20;;
5995;SDS011;3026;53.612;7.278;2023-06-10T09:10:00;7.10;;;4.47;;
5995;SDS011;3026;53.612;7.278;2023-06-10T09:12:29;5.43;;;4.60;;
5995;SDS011;3026;53.612;7.278;2023-06-10T09:14:55;7.07;;;5.03;;
5995;SDS011;3026;53.612;7.278;2023-06-10T09:17:22;9.33;;;5.57;;
5995;SDS011;3026;53.612;7.278;2023-06-10T09:19:51;8.03;;;5.33;;
5995;SDS011;3026;53.612;7.278;2023-06-10T09:22:20;13.43;;;5.23;;
5995;SDS011;3026;53.612;7.278;2023-06-10T09:24:47;10.37;;;5.10;;
5995;SDS011;3026;53.612;7.278;2023-06-10T09:27:14;11.53;;;5.03;;
5995;SDS011;3026;53.612;7.278;2023-06-10T09:29:48;12.70;;;5.77;;
5995;SDS011;3026;53.612;7.278;2023-06-10T09:32:18;6.70;;;4.63;;
5995;SDS011;3026;53.612;7.278;2023-06-10T09:34:46;6.60;;;4.90;;
5995;SDS011;3026;53.612;7.278;2023-06-10T09:37:20;8.60;;;4.90;;
5995;SDS011;3026;53.612;7.278;2023-06-10T09:40:00;7.53;;;5.10;;
5995;SDS011;3026;53.612;7.278;2023-06-10T09:42:32;7.47;;;5.13;;
5995;SDS011;3026;53.612;7.278;2023-06-10T09:45:00;7.47;;;4.73;;
5995;SDS011;3026;53.612;7.278;2023-06-10T09:47:27;10.33;;;4.90;;
5995;SDS011;3026;53.612;7.278;2023-06-10T09:49:54;8.37;;;5.40;;
5995;SDS011;3026;53.612;7.278;2023-06-10T09:52:23;11.47;;;4.77;;
5995;SDS011;3026;53.612;7.278;2023-06-10T09:54:50;14.00;;;5.47;;
5995;SDS011;3026;53.612;7.278;2023-06-10T09:57:19;9.77;;;4.50;;
5995;SDS011;3026;53.612;7.278;2023-06-10T09:59:47;10.77;;;4.60;;
5995;SDS011;3026;53.612;7.278;2023-06-10T10:02:14;9.53;;;5.27;;
5995;SDS011;3026;53.612;7.278;2023-06-10T10:04:42;11.50;;;5.07;;
5995;SDS011;3026;53.612;7.278;2023-06-10T10:07:09;10.47;;;4.83;;
5995;SDS011;3026;53.612;7.278;2023-06-10T10:09:37;8.90;;;5.20;;
5995;SDS011;3026;53.612;7.278;2023-06-10T10:12:05;10.67;;;5.80;;
5995;SDS011;3026;53.612;7.278;2023-06-10T10:14:36;5.57;;;4.93;;
5995;SDS011;3026;53.612;7.278;2023-06-10T10:17:04;7.73;;;5.23;;
5995;SDS011;3026;53.612;7.278;2023-06-10T10:19:37;6.90;;;5.23;;
5995;SDS011;3026;53.612;7.278;2023-06-10T10:22:14;10.00;;;5.03;;
5995;SDS011;3026;53.612;7.278;2023-06-10T10:24:46;9.53;;;4.90;;
5995;SDS011;3026;53.612;7.278;2023-06-10T10:27:17;9.27;;;5.43;;
5995;SDS011;3026;53.612;7.278;2023-06-10T10:29:47;7.57;;;4.87;;
5995;SDS011;3026;53.612;7.278;2023-06-10T10:32:18;9.67;;;4.73;;
5995;SDS011;3026;53.612;7.278;2023-06-10T10:34:48;8.70;;;4.60;;
5995;SDS011;3026;53.612;7.278;2023-06-10T10:37:17;8.27;;;4.63;;
5995;SDS011;3026;53.612;7.278;2023-06-10T10:39:44;12.77;;;5.50;;
5995;SDS011;3026;53.612;7.278;2023-06-10T10:42:13;11.40;;;4.40;;
5995;SDS011;3026;53.612;7.278;2023-06-10T10:44:40;10.80;;;5.23;;
5995;SDS011;3026;53.612;7.278;2023-06-10T10:47:08;7.53;;;5.10;;
5995;SDS011;3026;53.612;7.278;2023-06-10T10:49:37;10.63;;;4.97;;
5995;SDS011;3026;53.612;7.278;2023-06-10T10:52:08;11.07;;;5.37;;
5995;SDS011;3026;53.612;7.278;2023-06-10T10:54:39;12.10;;;4.80;;
5995;SDS011;3026;53.612;7.278;2023-06-10T10:57:10;8.45;;;4.60;;
5995;SDS011;3026;53.612;7.278;2023-06-10T10:59:52;8.77;;;4.60;;
5995;SDS011;3026;53.612;7.278;2023-06-10T11:02:37;9.20;;;5.43;;
5995;SDS011;3026;53.612;7.278;2023-06-10T11:05:08;8.67;;;4.43;;
5995;SDS011;3026;53.612;7.278;2023-06-10T11:07:37;10.47;;;4.70;;
5995;SDS011;3026;53.612;7.278;2023-06-10T11:10:06;12.73;;;4.90;;
5995;SDS011;3026;53.612;7.278;2023-06-10T11:12:42;7.68;;;4.25;;
5995;SDS011;3026;53.612;7.278;2023-06-10T11:15:21;10.30;;;4.35;;
5995;SDS011;3026;53.612;7.278;2023-06-10T11:20:54;10.38;;;5.00;;
5995;SDS011;3026;53.612;7.278;2023-06-10T11:23:33;10.10;;;4.75;;
5995;SDS011;3026;53.612;7.278;2023-06-10T11:26:20;8.03;;;4.97;;
5995;SDS011;3026;53.612;7.278;2023-06-10T11:29:02;8.30;;;4.40;;
5995;SDS011;3026;53.612;7.278;2023-06-10T11:31:31;9.65;;;5.30;;
5995;SDS011;3026;53.612;7.278;2023-06-10T11:33:59;10.57;;;5.40;;
5995;SDS011;3026;53.612;7.278;2023-06-10T11:36:28;11.40;;;4.40;;
5995;SDS011;3026;53.612;7.278;2023-06-10T11:38:55;12.07;;;4.82;;
5995;SDS011;3026;53.612;7.278;2023-06-10T11:41:24;10.50;;;5.65;;
5995;SDS011;3026;53.612;7.278;2023-06-10T11:43:52;8.52;;;4.78;;
5995;SDS011;3026;53.612;7.278;2023-06-10T11:46:22;14.02;;;5.60;;
5995;SDS011;3026;53.612;7.278;2023-06-10T11:48:49;8.55;;;5.60;;
5995;SDS011;3026;53.612;7.278;2023-06-10T11:51:17;11.93;;;4.90;;
5995;SDS011;3026;53.612;7.278;2023-06-10T11:53:44;7.07;;;4.40;;
5995;SDS011;3026;53.612;7.278;2023-06-10T11:56:11;10.35;;;4.93;;
5995;SDS011;3026;53.612;7.278;2023-06-10T11:58:38;12.05;;;4.78;;
5995;SDS011;3026;53.612;7.278;2023-06-10T12:01:09;8.95;;;3.80;;
5995;SDS011;3026;53.612;7.278;2023-06-10T12:03:38;8.10;;;4.25;;
5995;SDS011;3026;53.612;7.278;2023-06-10T12:06:05;11.15;;;3.70;;
5995;SDS011;3026;53.612;7.278;2023-06-10T12:08:33;8.57;;;4.13;;
5995;SDS011;3026;53.612;7.278;2023-06-10T12:11:07;6.27;;;3.37;;
5995;SDS011;3026;53.612;7.278;2023-06-10T12:13:34;8.32;;;3.25;;
5995;SDS011;3026;53.612;7.278;2023-06-10T12:16:07;12.70;;;4.20;;
5995;SDS011;3026;53.612;7.278;2023-06-10T12:18:34;10.30;;;3.50;;
5995;SDS011;3026;53.612;7.278;2023-06-10T12:21:03;7.33;;;3.43;;
5995;SDS011;3026;53.612;7.278;2023-06-10T12:26:33;8.68;;;3.70;;
5995;SDS011;3026;53.612;7.278;2023-06-10T12:29:20;7.83;;;4.00;;
5995;SDS011;3026;53.612;7.278;2023-06-10T12:31:56;12.43;;;3.90;;
5995;SDS011;3026;53.612;7.278;2023-06-10T12:34:31;8.60;;;3.60;;
5995;SDS011;3026;53.612;7.278;2023-06-10T12:37:04;8.43;;;4.53;;
5995;SDS011;3026;53.612;7.278;2023-06-10T12:39:31;9.33;;;4.53;;
5995;SDS011;3026;53.612;7.278;2023-06-10T12:41:59;8.27;;;3.60;;
5995;SDS011;3026;53.612;7.278;2023-06-10T12:44:30;8.73;;;4.38;;
5995;SDS011;3026;53.612;7.278;2023-06-10T12:46:59;9.90;;;4.40;;
5995;SDS011;3026;53.612;7.278;2023-06-10T12:49:26;6.37;;;3.63;;
5995;SDS011;3026;53.612;7.278;2023-06-10T12:51:53;9.43;;;4.20;;
5995;SDS011;3026;53.612;7.278;2023-06-10T12:54:22;7.20;;;3.28;;
5995;SDS011;3026;53.612;7.278;2023-06-10T12:56:48;9.68;;;4.28;;
5995;SDS011;3026;53.612;7.278;2023-06-10T12:59:15;8.77;;;4.05;;
5995;SDS011;3026;53.612;7.278;2023-06-10T13:01:42;9.20;;;3.65;;
5995;SDS011;3026;53.612;7.278;2023-06-10T13:04:09;10.85;;;3.75;;
5995;SDS011;3026;53.612;7.278;2023-06-10T13:06:36;9.82;;;3.72;;
5995;SDS011;3026;53.612;7.278;2023-06-10T13:09:04;7.47;;;3.65;;
5995;SDS011;3026;53.612;7.278;2023-06-10T13:11:34;9.40;;;3.15;;
5995;SDS011;3026;53.612;7.278;2023-06-10T13:14:01;8.55;;;3.40;;
5995;SDS011;3026;53.612;7.278;2023-06-10T13:16:30;4.90;;;3.40;;
5995;SDS011;3026;53.612;7.278;2023-06-10T13:18:57;9.57;;;3.72;;
5995;SDS011;3026;53.612;7.278;2023-06-10T13:21:24;9.82;;;3.30;;
5995;SDS011;3026;53.612;7.278;2023-06-10T13:23:50;7.03;;;3.58;;
5995;SDS011;3026;53.612;7.278;2023-06-10T13:26:17;6.15;;;3.83;;
5995;SDS011;3026;53.612;7.278;2023-06-10T13:28:45;11.25;;;3.90;;
5995;SDS011;3026;53.612;7.278;2023-06-10T13:31:12;8.98;;;3.92;;
5995;SDS011;3026;53.612;7.278;2023-06-10T13:33:39;7.38;;;3.35;;
5995;SDS011;3026;53.612;7.278;2023-06-10T13:36:08;7.22;;;3.58;;
5995;SDS011;3026;53.612;7.278;2023-06-10T13:38:35;9.80;;;3.83;;
5995;SDS011;3026;53.612;7.278;2023-06-10T13:41:02;7.38;;;3.10;;
5995;SDS011;3026;53.612;7.278;2023-06-10T13:43:29;10.27;;;4.22;;
5995;SDS011;3026;53.612;7.278;2023-06-10T13:45:57;7.82;;;3.45;;
5995;SDS011;3026;53.612;7.278;2023-06-10T13:48:23;6.30;;;3.10;;
5995;SDS011;3026;53.612;7.278;2023-06-10T13:50:50;11.25;;;3.45;;
5995;SDS011;3026;53.612;7.278;2023-06-10T13:53:17;8.40;;;3.72;;
5995;SDS011;3026;53.612;7.278;2023-06-10T13:55:44;6.22;;;3.65;;
5995;SDS011;3026;53.612;7.278;2023-06-10T13:58:10;10.93;;;3.40;;
5995;SDS011;3026;53.612;7.278;2023-06-10T14:00:37;10.00;;;3.40;;
5995;SDS011;3026;53.612;7.278;2023-06-10T14:03:05;9.98;;;4.32;;
5995;SDS011;3026;53.612;7.278;2023-06-10T14:05:32;7.00;;;3.47;;
5995;SDS011;3026;53.612;7.278;2023-06-10T14:07:59;8.13;;;3.58;;
5995;SDS011;3026;53.612;7.278;2023-06-10T14:10:26;8.93;;;3.75;;
5995;SDS011;3026;53.612;7.278;2023-06-10T14:12:53;7.07;;;3.65;;
5995;SDS011;3026;53.612;7.278;2023-06-10T14:15:19;10.15;;;3.67;;
5995;SDS011;3026;53.612;7.278;2023-06-10T14:17:46;7.95;;;3.10;;
5995;SDS011;3026;53.612;7.278;2023-06-10T14:20:15;12.02;;;4.25;;
5995;SDS011;3026;53.612;7.278;2023-06-10T14:22:41;8.13;;;3.30;;
5995;SDS011;3026;53.612;7.278;2023-06-10T14:25:08;9.05;;;3.42;;
5995;SDS011;3026;53.612;7.278;2023-06-10T14:27:36;7.55;;;3.28;;
5995;SDS011;3026;53.612;7.278;2023-06-10T14:30:03;7.97;;;3.75;;
5995;SDS011;3026;53.612;7.278;2023-06-10T14:32:30;10.02;;;3.08;;
5995;SDS011;3026;53.612;7.278;2023-06-10T14:34:57;9.93;;;3.53;;
5995;SDS011;3026;53.612;7.278;2023-06-10T14:37:25;5.50;;;3.05;;
5995;SDS011;3026;53.612;7.278;2023-06-10T14:39:52;10.30;;;3.33;;
5995;SDS011;3026;53.612;7.278;2023-06-10T14:42:19;7.75;;;3.35;;
5995;SDS011;3026;53.612;7.278;2023-06-10T14:44:45;7.82;;;3.00;;
5995;SDS011;3026;53.612;7.278;2023-06-10T14:47:12;6.03;;;3.08;;
5995;SDS011;3026;53.612;7.278;2023-06-10T14:49:39;5.57;;;3.05;;
5995;SDS011;3026;53.612;7.278;2023-06-10T14:52:07;8.45;;;3.47;;
5995;SDS011;3026;53.612;7.278;2023-06-10T14:54:35;5.00;;;3.03;;
5995;SDS011;3026;53.612;7.278;2023-06-10T14:57:02;7.32;;;3.25;;
5995;SDS011;3026;53.612;7.278;2023-06-10T14:59:30;8.00;;;2.67;;
5995;SDS011;3026;53.612;7.278;2023-06-10T15:01:57;6.28;;;3.17;;
5995;SDS011;3026;53.612;7.278;2023-06-10T15:04:25;5.55;;;3.00;;
5995;SDS011;3026;53.612;7.278;2023-06-10T15:06:52;4.93;;;2.95;;
5995;SDS011;3026;53.612;7.278;2023-06-10T15:09:19;6.05;;;3.10;;
5995;SDS011;3026;53.612;7.278;2023-06-10T15:11:47;8.65;;;3.00;;
5995;SDS011;3026;53.612;7.278;2023-06-10T15:14:14;8.70;;;2.90;;
5995;SDS011;3026;53.612;7.278;2023-06-10T15:16:41;4.03;;;2.70;;
5995;SDS011;3026;53.612;7.278;2023-06-10T15:19:08;5.30;;;3.35;;
5995;SDS011;3026;53.612;7.278;2023-06-10T15:21:34;6.68;;;2.95;;